sensor_id;sensor_type;location;lat;lon;timestamp;pressure;altitude;pressure_sealevel;temperature;humidity
55916;BME280;41826;53.246;-6.670;2023-04-01T00:02:05;100113.97;;;10.73;100.00
55916;BME280;41826;53.246;-6.670;2023-04-01T00:04:31;100113.81;;;10.74;100.00
55916;BME280;41826;53.246;-6.670;2023-04-01T00:06:57;100117.41;;;10.73;100.00
55916;BME280;41826;53.246;-6.670;2023-04-01T00:09:23;100120.53;;;10.69;100.00
55916;BME280;41826;53.246;-6.670;2023-04-01T00:11:48;100122.66;;;10.73;100.00
55916;BME280;41826;53.246;-6.670;2023-04-01T00:14:13;100120.22;;;10.72;100.00
55916;BME280;41826;53.246;-6.670;2023-04-01T00:16:39;100127.91;;;10.73;100.00
55916;BME280;41826;53.246;-6.670;2023-04-01T00:19:05;100131.22;;;10.75;100.00
55916;BME280;41826;53.246;-6.670;2023-04-01T00:21:30;100137.28;;;10.76;100.00
55916;BME280;41826;53.246;-6.670;2023-04-01T00:23:56;100135.16;;;10.79;100.00
55916;BME280;41826;53.246;-6.670;2023-04-01T00:26:21;100141.25;;;10.80;100.00
55916;BME280;41826;53.246;-6.670;2023-04-01T00:28:47;100136.13;;;10.78;100.00
55916;BME280;41826;53.246;-6.670;2023-04-01T00:31:14;100138.75;;;10.78;100.00
55916;BME280;41826;53.246;-6.670;2023-04-01T00:33:40;100139.75;;;10.77;100.00
55916;BME280;41826;53.246;-6.670;2023-04-01T00:36:17;100141.72;;;10.75;100.00
55916;BME280;41826;53.246;-6.670;2023-04-01T00:38:43;100136.63;;;10.74;100.00
55916;BME280;41826;53.246;-6.670;2023-04-01T00:41:11;100144.50;;;10.74;100.00
55916;BME280;41826;53.246;-6.670;2023-04-01T00:43:40;100140.06;;;10.74;100.00
55916;BME280;41826;53.246;-6.670;2023-04-01T00:46:05;100142.34;;;10.69;100.00
55916;BME280;41826;53.246;-6.670;2023-04-01T00:48:33;100136.78;;;10.72;100.00
55916;BME280;41826;53.246;-6.670;2023-04-01T00:51:05;100136.75;;;10.64;100.00
55916;BME280;41826;53.246;-6.670;2023-04-01T00:53:32;100139.56;;;10.71;100.00
55916;BME280;41826;53.246;-6.670;2023-04-01T00:56:07;100133.81;;;10.67;100.00
55916;BME280;41826;53.246;-6.670;2023-04-01T00:58:38;100130.38;;;10.67;100.00
55916;BME280;41826;53.246;-6.670;2023-04-01T01:01:06;100133.66;;;10.69;100.00
55916;BME280;41826;53.246;-6.670;2023-04-01T01:03:33;100140.69;;;10.68;100.00
55916;BME280;41826;53.246;-6.670;2023-04-01T01:12:06;100134.47;;;10.61;100.00
55916;BME280;41826;53.246;-6.670;2023-04-01T01:22:57;100123.94;;;10.61;100.00
55916;BME280;41826;53.246;-6.670;2023-04-01T01:31:20;100130.50;;;10.65;100.00
55916;BME280;41826;53.246;-6.670;2023-04-01T01:36:41;100143.75;;;10.55;100.00
55916;BME280;41826;53.246;-6.670;2023-04-01T01:39:10;100138.81;;;10.52;100.00
55916;BME280;41826;53.246;-6.670;2023-04-01T01:41:39;100135.06;;;10.55;100.00
55916;BME280;41826;53.246;-6.670;2023-04-01T01:44:08;100141.00;;;10.57;100.00
55916;BME280;41826;53.246;-6.670;2023-04-01T01:46:38;100133.38;;;10.46;100.00
55916;BME280;41826;53.246;-6.670;2023-04-01T01:49:05;100133.75;;;10.51;100.00
55916;BME280;41826;53.246;-6.670;2023-04-01T01:51:32;100138.47;;;10.47;100.00
55916;BME280;41826;53.246;-6.670;2023-04-01T01:53:58;100135.25;;;10.53;100.00
55916;BME280;41826;53.246;-6.670;2023-04-01T01:56:26;100141.97;;;10.56;100.00
55916;BME280;41826;53.246;-6.670;2023-04-01T01:58:58;100147.50;;;10.53;100.00
55916;BME280;41826;53.246;-6.670;2023-04-01T02:01:28;100148.19;;;10.55;100.00
55916;BME280;41826;53.246;-6.670;2023-04-01T02:03:55;100153.09;;;10.50;100.00
55916;BME280;41826;53.246;-6.670;2023-04-01T02:06:26;100154.44;;;10.54;100.00
55916;BME280;41826;53.246;-6.670;2023-04-01T02:08:56;100153.44;;;10.55;100.00
55916;BME280;41826;53.246;-6.670;2023-04-01T02:11:36;100148.66;;;10.50;100.00
55916;BME280;41826;53.246;-6.670;2023-04-01T02:14:11;100153.91;;;10.50;100.00
55916;BME280;41826;53.246;-6.670;2023-04-01T02:19:12;100161.63;;;10.52;100.00
55916;BME280;41826;53.246;-6.670;2023-04-01T02:21:39;100161.06;;;10.40;100.00
55916;BME280;41826;53.246;-6.670;2023-04-01T02:24:08;100167.19;;;10.49;100.00
55916;BME280;41826;53.246;-6.670;2023-04-01T02:26:35;100164.56;;;10.49;100.00
55916;BME280;41826;53.246;-6.670;2023-04-01T02:29:01;100167.03;;;10.50;100.00
55916;BME280;41826;53.246;-6.670;2023-04-01T02:31:29;100173.25;;;10.49;100.00
55916;BME280;41826;53.246;-6.670;2023-04-01T02:33:55;100177.84;;;10.47;100.00
55916;BME280;41826;53.246;-6.670;2023-04-01T02:36:21;100177.38;;;10.52;100.00
55916;BME280;41826;53.246;-6.670;2023-04-01T02:38:47;100173.75;;;10.53;100.00
55916;BME280;41826;53.246;-6.670;2023-04-01T02:41:14;100179.00;;;10.53;100.00
55916;BME280;41826;53.246;-6.670;2023-04-01T02:43:40;100177.47;;;10.42;100.00
55916;BME280;41826;53.246;-6.670;2023-04-01T02:46:05;100179.66;;;10.47;100.00
55916;BME280;41826;53.246;-6.670;2023-04-01T02:48:31;100181.09;;;10.41;100.00
55916;BME280;41826;53.246;-6.670;2023-04-01T02:50:56;100177.34;;;10.44;100.00
55916;BME280;41826;53.246;-6.670;2023-04-01T02:53:22;100186.03;;;10.44;100.00
55916;BME280;41826;53.246;-6.670;2023-04-01T02:55:47;100184.88;;;10.47;100.00
55916;BME280;41826;53.246;-6.670;2023-04-01T02:58:16;100186.84;;;10.45;100.00
55916;BME280;41826;53.246;-6.670;2023-04-01T03:00:41;100191.78;;;10.48;100.00
55916;BME280;41826;53.246;-6.670;2023-04-01T03:03:08;100202.28;;;10.48;100.00
55916;BME280;41826;53.246;-6.670;2023-04-01T03:05:33;100192.09;;;10.45;100.00
55916;BME280;41826;53.246;-6.670;2023-04-01T03:07:59;100197.47;;;10.43;100.00
55916;BME280;41826;53.246;-6.670;2023-04-01T03:10:24;100200.09;;;10.43;100.00
55916;BME280;41826;53.246;-6.670;2023-04-01T03:12:50;100200.94;;;10.44;100.00
55916;BME280;41826;53.246;-6.670;2023-04-01T03:15:15;100198.63;;;10.40;100.00
55916;BME280;41826;53.246;-6.670;2023-04-01T03:17:41;100198.00;;;10.47;100.00
55916;BME280;41826;53.246;-6.670;2023-04-01T03:20:08;100208.66;;;10.45;100.00
55916;BME280;41826;53.246;-6.670;2023-04-01T03:22:34;100203.41;;;10.45;100.00
55916;BME280;41826;53.246;-6.670;2023-04-01T03:25:01;100204.84;;;10.39;100.00
55916;BME280;41826;53.246;-6.670;2023-04-01T03:27:26;100209.09;;;10.40;100.00
55916;BME280;41826;53.246;-6.670;2023-04-01T03:29:52;100205.97;;;10.37;100.00
55916;BME280;41826;53.246;-6.670;2023-04-01T03:32:17;100207.47;;;10.39;100.00
55916;BME280;41826;53.246;-6.670;2023-04-01T03:34:43;100217.97;;;10.39;100.00
55916;BME280;41826;53.246;-6.670;2023-04-01T03:37:08;100224.03;;;10.40;100.00
55916;BME280;41826;53.246;-6.670;2023-04-01T03:39:33;100224.22;;;10.38;100.00
55916;BME280;41826;53.246;-6.670;2023-04-01T03:42:00;100220.56;;;10.31;100.00
55916;BME280;41826;53.246;-6.670;2023-04-01T03:44:25;100219.72;;;10.31;100.00
55916;BME280;41826;53.246;-6.670;2023-04-01T03:46:51;100218.06;;;10.30;100.00
55916;BME280;41826;53.246;-6.670;2023-04-01T03:49:16;100219.09;;;10.19;100.00
55916;BME280;41826;53.246;-6.670;2023-04-01T03:51:43;100219.56;;;10.32;100.00
55916;BME280;41826;53.246;-6.670;2023-04-01T03:54:09;100221.50;;;10.30;100.00
55916;BME280;41826;53.246;-6.670;2023-04-01T03:56:35;100221.50;;;10.30;100.00
55916;BME280;41826;53.246;-6.670;2023-04-01T03:59:03;100214.63;;;10.29;100.00
55916;BME280;41826;53.246;-6.670;2023-04-01T04:01:29;100228.09;;;10.34;100.00
55916;BME280;41826;53.246;-6.670;2023-04-01T04:03:55;100226.91;;;10.29;100.00
55916;BME280;41826;53.246;-6.670;2023-04-01T04:06:21;100228.41;;;10.31;100.00
55916;BME280;41826;53.246;-6.670;2023-04-01T04:08:47;100228.84;;;10.27;100.00
55916;BME280;41826;53.246;-6.670;2023-04-01T04:11:12;100232.16;;;10.29;100.00
55916;BME280;41826;53.246;-6.670;2023-04-01T04:13:38;100241.97;;;10.27;100.00
55916;BME280;41826;53.246;-6.670;2023-04-01T04:16:03;100233.81;;;10.30;100.00
55916;BME280;41826;53.246;-6.670;2023-04-01T04:18:29;100236.44;;;10.30;100.00
55916;BME280;41826;53.246;-6.670;2023-04-01T04:20:55;100238.16;;;10.21;100.00
55916;BME280;41826;53.246;-6.670;2023-04-01T04:23:20;100241.28;;;10.25;100.00
55916;BME280;41826;53.246;-6.670;2023-04-01T04:25:57;100238.16;;;10.21;100.00
55916;BME280;41826;53.246;-6.670;2023-04-01T04:28:24;100246.16;;;10.19;100.00
55916;BME280;41826;53.246;-6.670;2023-04-01T04:30:50;100240.59;;;10.23;100.00
55916;BME280;41826;53.246;-6.670;2023-04-01T04:33:16;100243.41;;;10.21;100.00
55916;BME280;41826;53.246;-6.670;2023-04-01T04:35:42;100254.72;;;10.22;100.00
55916;BME280;41826;53.246;-6.670;2023-04-01T04:38:07;100246.59;;;10.15;100.00
55916;BME280;41826;53.246;-6.670;2023-04-01T04:40:32;100252.97;;;10.12;100.00
55916;BME280;41826;53.246;-6.670;2023-04-01T04:42:58;100250.59;;;10.19;100.00
55916;BME280;41826;53.246;-6.670;2023-04-01T04:45:23;100254.78;;;10.12;100.00
55916;BME280;41826;53.246;-6.670;2023-04-01T04:47:48;100261.09;;;10.19;100.00
55916;BME280;41826;53.246;-6.670;2023-04-01T04:50:14;100261.16;;;10.09;100.00
55916;BME280;41826;53.246;-6.670;2023-04-01T04:52:39;100271.66;;;10.09;100.00
55916;BME280;41826;53.246;-6.670;2023-04-01T04:55:05;100262.97;;;10.09;100.00
55916;BME280;41826;53.246;-6.670;2023-04-01T04:57:31;100269.19;;;10.08;100.00
55916;BME280;41826;53.246;-6.670;2023-04-01T04:59:56;100261.97;;;10.10;100.00
55916;BME280;41826;53.246;-6.670;2023-04-01T05:02:21;100270.69;;;10.10;100.00
55916;BME280;41826;53.246;-6.670;2023-04-01T05:04:47;100273.00;;;10.13;100.00
55916;BME280;41826;53.246;-6.670;2023-04-01T05:07:12;100274.94;;;10.11;100.00
55916;BME280;41826;53.246;-6.670;2023-04-01T05:09:38;100292.06;;;10.15;100.00
55916;BME280;41826;53.246;-6.670;2023-04-01T05:12:03;100280.34;;;10.10;100.00
55916;BME280;41826;53.246;-6.670;2023-04-01T05:14:28;100296.44;;;10.15;100.00
55916;BME280;41826;53.246;-6.670;2023-04-01T05:16:54;100299.31;;;10.04;100.00
55916;BME280;41826;53.246;-6.670;2023-04-01T05:19:20;100300.13;;;10.04;100.00
55916;BME280;41826;53.246;-6.670;2023-04-01T05:21:45;100292.81;;;10.08;100.00
55916;BME280;41826;53.246;-6.670;2023-04-01T05:24:11;100303.94;;;10.10;100.00
55916;BME280;41826;53.246;-6.670;2023-04-01T05:26:36;100309.47;;;9.71;100.00
55916;BME280;41826;53.246;-6.670;2023-04-01T05:29:03;100303.19;;;9.99;100.00
55916;BME280;41826;53.246;-6.670;2023-04-01T05:31:29;100300.56;;;9.99;100.00
55916;BME280;41826;53.246;-6.670;2023-04-01T05:33:54;100314.50;;;10.00;100.00
55916;BME280;41826;53.246;-6.670;2023-04-01T05:36:20;100312.63;;;9.92;100.00
55916;BME280;41826;53.246;-6.670;2023-04-01T05:38:45;100304.75;;;9.92;100.00
55916;BME280;41826;53.246;-6.670;2023-04-01T05:41:11;100305.59;;;9.93;100.00
55916;BME280;41826;53.246;-6.670;2023-04-01T05:43:37;100314.66;;;9.98;100.00
55916;BME280;41826;53.246;-6.670;2023-04-01T05:46:03;100316.91;;;9.93;100.00
55916;BME280;41826;53.246;-6.670;2023-04-01T05:48:29;100319.91;;;9.98;100.00
55916;BME280;41826;53.246;-6.670;2023-04-01T05:50:55;100324.16;;;9.99;100.00
55916;BME280;41826;53.246;-6.670;2023-04-01T05:53:20;100336.59;;;9.97;100.00
55916;BME280;41826;53.246;-6.670;2023-04-01T05:55:45;100329.19;;;9.93;100.00
55916;BME280;41826;53.246;-6.670;2023-04-01T05:58:11;100339.53;;;9.94;100.00
55916;BME280;41826;53.246;-6.670;2023-04-01T06:00:36;100341.56;;;10.01;100.00
55916;BME280;41826;53.246;-6.670;2023-04-01T06:03:02;100352.06;;;10.01;100.00
55916;BME280;41826;53.246;-6.670;2023-04-01T06:05:30;100354.31;;;9.95;100.00
55916;BME280;41826;53.246;-6.670;2023-04-01T06:08:01;100349.56;;;9.99;100.00
55916;BME280;41826;53.246;-6.670;2023-04-01T06:27:09;100378.03;;;9.94;100.00
55916;BME280;41826;53.246;-6.670;2023-04-01T06:30:00;100382.38;;;9.85;100.00
55916;BME280;41826;53.246;-6.670;2023-04-01T06:32:32;100391.56;;;9.89;100.00
55916;BME280;41826;53.246;-6.670;2023-04-01T06:35:16;100392.94;;;9.93;100.00
55916;BME280;41826;53.246;-6.670;2023-04-01T06:38:01;100400.38;;;9.98;100.00
55916;BME280;41826;53.246;-6.670;2023-04-01T06:43:46;100409.84;;;9.81;100.00
55916;BME280;41826;53.246;-6.670;2023-04-01T06:46:18;100409.72;;;9.83;100.00
55916;BME280;41826;53.246;-6.670;2023-04-01T06:54:21;100426.41;;;9.82;100.00
55916;BME280;41826;53.246;-6.670;2023-04-01T06:56:56;100424.97;;;9.87;100.00
55916;BME280;41826;53.246;-6.670;2023-04-01T06:59:28;100421.97;;;9.82;100.00
55916;BME280;41826;53.246;-6.670;2023-04-01T07:01:58;100422.13;;;9.81;100.00
55916;BME280;41826;53.246;-6.670;2023-04-01T07:04:32;100428.50;;;9.78;100.00
55916;BME280;41826;53.246;-6.670;2023-04-01T07:07:02;100413.19;;;9.73;100.00
55916;BME280;41826;53.246;-6.670;2023-04-01T07:09:41;100409.88;;;9.71;100.00
55916;BME280;41826;53.246;-6.670;2023-04-01T07:12:43;100418.41;;;9.83;100.00
55916;BME280;41826;53.246;-6.670;2023-04-01T07:15:21;100432.38;;;9.74;100.00
55916;BME280;41826;53.246;-6.670;2023-04-01T07:17:53;100437.28;;;9.87;100.00
55916;BME280;41826;53.246;-6.670;2023-04-01T07:20:27;100446.34;;;9.92;100.00
55916;BME280;41826;53.246;-6.670;2023-04-01T07:22:58;100457.69;;;9.93;100.00
55916;BME280;41826;53.246;-6.670;2023-04-01T07:25:31;100464.81;;;9.73;100.00
55916;BME280;41826;53.246;-6.670;2023-04-01T07:28:06;100469.72;;;9.86;100.00
55916;BME280;41826;53.246;-6.670;2023-04-01T07:36:42;100487.41;;;9.74;100.00
55916;BME280;41826;53.246;-6.670;2023-04-01T07:41:49;100503.06;;;9.93;100.00
55916;BME280;41826;53.246;-6.670;2023-04-01T07:46:55;100520.22;;;9.88;100.00
55916;BME280;41826;53.246;-6.670;2023-04-01T07:52:29;100527.72;;;9.73;100.00
55916;BME280;41826;53.246;-6.670;2023-04-01T08:03:33;100556.94;;;9.88;100.00
55916;BME280;41826;53.246;-6.670;2023-04-01T08:08:58;100564.09;;;9.95;100.00
55916;BME280;41826;53.246;-6.670;2023-04-01T08:17:20;100577.91;;;9.88;100.00
55916;BME280;41826;53.246;-6.670;2023-04-01T08:22:41;100574.31;;;9.69;100.00
55916;BME280;41826;53.246;-6.670;2023-04-01T08:25:13;100571.56;;;9.81;100.00
55916;BME280;41826;53.246;-6.670;2023-04-01T08:27:43;100572.38;;;9.91;100.00
55916;BME280;41826;53.246;-6.670;2023-04-01T08:30:20;100584.34;;;10.03;100.00
55916;BME280;41826;53.246;-6.670;2023-04-01T08:33:00;100600.53;;;9.79;100.00
55916;BME280;41826;53.246;-6.670;2023-04-01T08:35:34;100598.78;;;9.60;100.00
55916;BME280;41826;53.246;-6.670;2023-04-01T08:38:12;100594.94;;;9.35;100.00
55916;BME280;41826;53.246;-6.670;2023-04-01T08:46:53;100599.69;;;9.98;100.00
55916;BME280;41826;53.246;-6.670;2023-04-01T08:57:53;100639.69;;;10.00;100.00
55916;BME280;41826;53.246;-6.670;2023-04-01T09:00:30;100648.09;;;10.04;100.00
55916;BME280;41826;53.246;-6.670;2023-04-01T09:11:34;100666.34;;;9.95;100.00
55916;BME280;41826;53.246;-6.670;2023-04-01T09:30:33;100686.31;;;10.26;100.00
55916;BME280;41826;53.246;-6.670;2023-04-01T09:35:49;100705.47;;;10.46;100.00
55916;BME280;41826;53.246;-6.670;2023-04-01T09:38:57;100717.53;;;10.38;100.00
55916;BME280;41826;53.246;-6.670;2023-04-01T09:41:30;100729.63;;;10.59;100.00
55916;BME280;41826;53.246;-6.670;2023-04-01T09:47:00;100749.81;;;10.49;100.00
55916;BME280;41826;53.246;-6.670;2023-04-01T09:49:59;100748.28;;;10.56;100.00
55916;BME280;41826;53.246;-6.670;2023-04-01T10:12:40;100745.94;;;10.53;100.00
55916;BME280;41826;53.246;-6.670;2023-04-01T10:23:27;100762.44;;;10.82;100.00
55916;BME280;41826;53.246;-6.670;2023-04-01T10:29:02;100771.00;;;10.84;100.00
55916;BME280;41826;53.246;-6.670;2023-04-01T10:36:56;100769.94;;;10.68;100.00
55916;BME280;41826;53.246;-6.670;2023-04-01T10:59:19;100828.03;;;11.39;100.00
55916;BME280;41826;53.246;-6.670;2023-04-01T11:31:47;100883.63;;;11.72;100.00
55916;BME280;41826;53.246;-6.670;2023-04-01T11:34:32;100889.25;;;11.87;100.00
55916;BME280;41826;53.246;-6.670;2023-04-01T11:45:50;100877.72;;;11.70;100.00
55916;BME280;41826;53.246;-6.670;2023-04-01T11:59:08;100903.56;;;10.71;100.00
55916;BME280;41826;53.246;-6.670;2023-04-01T12:01:51;100889.84;;;11.43;100.00
55916;BME280;41826;53.246;-6.670;2023-04-01T12:04:45;100898.16;;;10.92;100.00
55916;BME280;41826;53.246;-6.670;2023-04-01T12:10:18;100860.31;;;11.59;100.00
55916;BME280;41826;53.246;-6.670;2023-04-01T12:18:38;100905.88;;;11.87;100.00
55916;BME280;41826;53.246;-6.670;2023-04-01T12:21:28;100919.00;;;11.60;100.00
55916;BME280;41826;53.246;-6.670;2023-04-01T12:57:46;100990.78;;;11.70;100.00
55916;BME280;41826;53.246;-6.670;2023-04-01T13:03:06;101006.84;;;11.67;100.00
55916;BME280;41826;53.246;-6.670;2023-04-01T13:16:48;101051.53;;;11.67;100.00
55916;BME280;41826;53.246;-6.670;2023-04-01T13:19:25;101065.94;;;11.73;100.00
55916;BME280;41826;53.246;-6.670;2023-04-01T13:22:17;101071.47;;;11.89;100.00
55916;BME280;41826;53.246;-6.670;2023-04-01T13:24:56;101083.50;;;11.91;100.00
55916;BME280;41826;53.246;-6.670;2023-04-01T13:27:33;101089.44;;;12.03;100.00
55916;BME280;41826;53.246;-6.670;2023-04-01T13:30:26;101100.00;;;11.64;100.00
55916;BME280;41826;53.246;-6.670;2023-04-01T13:44:02;101140.38;;;12.02;100.00
55916;BME280;41826;53.246;-6.670;2023-04-01T14:04:11;101163.69;;;11.58;100.00
55916;BME280;41826;53.246;-6.670;2023-04-01T14:14:36;101149.81;;;12.05;100.00
55916;BME280;41826;53.246;-6.670;2023-04-01T14:17:29;101158.25;;;12.08;100.00
55916;BME280;41826;53.246;-6.670;2023-04-01T14:45:08;101253.38;;;11.55;100.00
55916;BME280;41826;53.246;-6.670;2023-04-01T14:50:20;101261.13;;;11.86;100.00
55916;BME280;41826;53.246;-6.670;2023-04-01T14:55:54;101273.63;;;11.93;100.00
55916;BME280;41826;53.246;-6.670;2023-04-01T14:58:22;101278.84;;;11.84;100.00
55916;BME280;41826;53.246;-6.670;2023-04-01T15:03:36;101301.13;;;11.80;100.00
55916;BME280;41826;53.246;-6.670;2023-04-01T15:19:48;101340.66;;;11.99;100.00
55916;BME280;41826;53.246;-6.670;2023-04-01T15:23:05;101335.13;;;12.02;100.00
55916;BME280;41826;53.246;-6.670;2023-04-01T15:25:51;101347.00;;;11.87;100.00
55916;BME280;41826;53.246;-6.670;2023-04-01T15:28:50;101371.34;;;11.39;100.00
55916;BME280;41826;53.246;-6.670;2023-04-01T15:34:34;101370.72;;;11.56;100.00
55916;BME280;41826;53.246;-6.670;2023-04-01T15:40:27;101392.75;;;11.65;100.00
55916;BME280;41826;53.246;-6.670;2023-04-01T15:43:19;101398.41;;;11.60;100.00
55916;BME280;41826;53.246;-6.670;2023-04-01T15:57:52;101436.28;;;11.48;100.00
55916;BME280;41826;53.246;-6.670;2023-04-01T16:00:11;101441.63;;;11.67;100.00
55916;BME280;41826;53.246;-6.670;2023-04-01T16:02:48;101451.84;;;11.61;100.00
55916;BME280;41826;53.246;-6.670;2023-04-01T16:05:54;101460.72;;;11.60;100.00
55916;BME280;41826;53.246;-6.670;2023-04-01T16:17:35;101489.75;;;11.58;100.00
55916;BME280;41826;53.246;-6.670;2023-04-01T16:20:16;101480.00;;;11.70;100.00
55916;BME280;41826;53.246;-6.670;2023-04-01T16:22:57;101496.16;;;11.65;100.00
55916;BME280;41826;53.246;-6.670;2023-04-01T16:28:25;101512.78;;;11.66;100.00
55916;BME280;41826;53.246;-6.670;2023-04-01T16:31:37;101531.13;;;11.56;100.00
55916;BME280;41826;53.246;-6.670;2023-04-01T16:37:43;101549.16;;;11.40;100.00
55916;BME280;41826;53.246;-6.670;2023-04-01T16:40:01;101555.63;;;11.36;100.00
55916;BME280;41826;53.246;-6.670;2023-04-01T16:42:48;101563.63;;;11.34;100.00
55916;BME280;41826;53.246;-6.670;2023-04-01T16:45:21;101577.38;;;11.38;100.00
55916;BME280;41826;53.246;-6.670;2023-04-01T16:47:54;101581.66;;;11.39;100.00
55916;BME280;41826;53.246;-6.670;2023-04-01T16:50:23;101588.78;;;11.16;100.00
55916;BME280;41826;53.246;-6.670;2023-04-01T16:53:14;101607.25;;;11.04;100.00
55916;BME280;41826;53.246;-6.670;2023-04-01T16:55:48;101612.28;;;10.96;100.00
55916;BME280;41826;53.246;-6.670;2023-04-01T16:58:21;101605.63;;;11.24;100.00
55916;BME280;41826;53.246;-6.670;2023-04-01T17:00:50;101614.72;;;11.20;100.00
55916;BME280;41826;53.246;-6.670;2023-04-01T17:03:34;101617.84;;;11.14;100.00
55916;BME280;41826;53.246;-6.670;2023-04-01T17:06:41;101626.97;;;10.88;100.00
55916;BME280;41826;53.246;-6.670;2023-04-01T17:09:15;101632.22;;;10.88;100.00
55916;BME280;41826;53.246;-6.670;2023-04-01T17:14:35;101645.88;;;10.81;100.00
55916;BME280;41826;53.246;-6.670;2023-04-01T17:22:52;101646.91;;;10.90;100.00
55916;BME280;41826;53.246;-6.670;2023-04-01T17:41:02;101700.50;;;10.31;100.00
55916;BME280;41826;53.246;-6.670;2023-04-01T17:46:11;101699.13;;;10.61;100.00
55916;BME280;41826;53.246;-6.670;2023-04-01T17:49:39;101711.78;;;10.56;100.00
55916;BME280;41826;53.246;-6.670;2023-04-01T17:52:59;101721.78;;;10.51;100.00
55916;BME280;41826;53.246;-6.670;2023-04-01T17:57:46;101724.38;;;10.39;100.00
55916;BME280;41826;53.246;-6.670;2023-04-01T18:05:30;101758.19;;;10.78;100.00
55916;BME280;41826;53.246;-6.670;2023-04-01T18:08:12;101760.97;;;10.76;100.00
55916;BME280;41826;53.246;-6.670;2023-04-01T18:19:03;101791.97;;;10.60;100.00
55916;BME280;41826;53.246;-6.670;2023-04-01T18:21:53;101805.38;;;10.33;100.00
55916;BME280;41826;53.246;-6.670;2023-04-01T18:24:31;101817.31;;;10.37;100.00
55916;BME280;41826;53.246;-6.670;2023-04-01T18:29:52;101828.28;;;10.31;100.00
55916;BME280;41826;53.246;-6.670;2023-04-01T18:32:35;101835.97;;;10.45;100.00
55916;BME280;41826;53.246;-6.670;2023-04-01T18:35:32;101852.34;;;10.49;100.00
55916;BME280;41826;53.246;-6.670;2023-04-01T18:41:13;101865.03;;;10.31;100.00
55916;BME280;41826;53.246;-6.670;2023-04-01T18:43:51;101862.59;;;10.04;100.00
55916;BME280;41826;53.246;-6.670;2023-04-01T18:46:36;101875.50;;;10.07;100.00
55916;BME280;41826;53.246;-6.670;2023-04-01T18:51:47;101892.44;;;9.90;100.00
55916;BME280;41826;53.246;-6.670;2023-04-01T18:54:33;101897.53;;;10.04;100.00
55916;BME280;41826;53.246;-6.670;2023-04-01T18:57:13;101893.06;;;10.17;100.00
55916;BME280;41826;53.246;-6.670;2023-04-01T18:59:42;101900.63;;;9.98;100.00
55916;BME280;41826;53.246;-6.670;2023-04-01T19:02:29;101911.00;;;9.87;100.00
55916;BME280;41826;53.246;-6.670;2023-04-01T19:05:10;101920.91;;;9.83;100.00
55916;BME280;41826;53.246;-6.670;2023-04-01T19:13:21;101933.16;;;9.95;100.00
55916;BME280;41826;53.246;-6.670;2023-04-01T19:34:37;101976.50;;;9.88;100.00
55916;BME280;41826;53.246;-6.670;2023-04-01T19:45:54;101985.72;;;9.94;100.00
55916;BME280;41826;53.246;-6.670;2023-04-01T19:53:56;102014.38;;;9.71;100.00
55916;BME280;41826;53.246;-6.670;2023-04-01T19:56:24;102007.47;;;9.70;100.00
55916;BME280;41826;53.246;-6.670;2023-04-01T20:04:41;102025.38;;;9.89;100.00
55916;BME280;41826;53.246;-6.670;2023-04-01T20:07:16;102032.09;;;9.68;100.00
55916;BME280;41826;53.246;-6.670;2023-04-01T20:15:41;102034.59;;;9.95;100.00
55916;BME280;41826;53.246;-6.670;2023-04-01T20:18:24;102041.22;;;9.88;100.00
55916;BME280;41826;53.246;-6.670;2023-04-01T20:20:53;102037.84;;;9.98;100.00
55916;BME280;41826;53.246;-6.670;2023-04-01T20:26:28;102049.50;;;9.94;100.00
55916;BME280;41826;53.246;-6.670;2023-04-01T20:31:44;102054.66;;;9.96;100.00
55916;BME280;41826;53.246;-6.670;2023-04-01T20:34:30;102057.56;;;10.04;100.00
55916;BME280;41826;53.246;-6.670;2023-04-01T20:37:28;102068.81;;;9.68;100.00
55916;BME280;41826;53.246;-6.670;2023-04-01T20:50:49;102087.03;;;9.69;100.00
55916;BME280;41826;53.246;-6.670;2023-04-01T20:53:16;102097.44;;;9.71;100.00
55916;BME280;41826;53.246;-6.670;2023-04-01T21:07:13;102125.22;;;9.61;100.00
55916;BME280;41826;53.246;-6.670;2023-04-01T21:09:48;102127.34;;;9.68;100.00
55916;BME280;41826;53.246;-6.670;2023-04-01T21:12:30;102138.66;;;9.69;100.00
55916;BME280;41826;53.246;-6.670;2023-04-01T21:18:29;102152.47;;;9.58;100.00
55916;BME280;41826;53.246;-6.670;2023-04-01T21:21:14;102155.13;;;9.71;100.00
55916;BME280;41826;53.246;-6.670;2023-04-01T21:31:48;102171.97;;;9.54;100.00
55916;BME280;41826;53.246;-6.670;2023-04-01T21:34:43;102170.91;;;9.57;100.00
55916;BME280;41826;53.246;-6.670;2023-04-01T21:37:33;102173.16;;;9.63;100.00
55916;BME280;41826;53.246;-6.670;2023-04-01T21:43:43;102188.72;;;9.51;100.00
55916;BME280;41826;53.246;-6.670;2023-04-01T21:46:13;102198.38;;;9.51;100.00
55916;BME280;41826;53.246;-6.670;2023-04-01T21:49:03;102199.03;;;9.54;100.00
55916;BME280;41826;53.246;-6.670;2023-04-01T21:51:53;102210.88;;;9.47;100.00
55916;BME280;41826;53.246;-6.670;2023-04-01T21:57:39;102211.28;;;9.54;100.00
55916;BME280;41826;53.246;-6.670;2023-04-01T22:00:19;102216.44;;;9.28;100.00
55916;BME280;41826;53.246;-6.670;2023-04-01T22:13:49;102230.34;;;9.43;100.00
55916;BME280;41826;53.246;-6.670;2023-04-01T22:16:20;102224.56;;;9.38;100.00
55916;BME280;41826;53.246;-6.670;2023-04-01T22:19:15;102230.81;;;9.50;100.00
55916;BME280;41826;53.246;-6.670;2023-04-01T22:22:14;102232.88;;;9.45;100.00
55916;BME280;41826;53.246;-6.670;2023-04-01T22:32:46;102232.16;;;9.28;100.00
55916;BME280;41826;53.246;-6.670;2023-04-01T22:43:40;102248.34;;;9.21;100.00
55916;BME280;41826;53.246;-6.670;2023-04-01T22:49:18;102254.16;;;9.26;100.00
55916;BME280;41826;53.246;-6.670;2023-04-01T22:52:09;102258.34;;;9.28;100.00